Time;durP1;ratioP1;P1;durP2;ratioP2;P2;SDS_P1;SDS_P2;PMS_P1;PMS_P2;Temp;Humidity;BMP_temperature;BMP_pressure;BME280_temperature;BME280_humidity;BME280_pressure;Samples;Min_cycle;Max_cycle;Signal;HPM_P1;HPM_P2
2021/12/30 00:00:13;;;;;;;9.13;8.83;;;9.60;99.90;;;;;;5077546;28;20234;-80
2021/12/30 00:02:40;;;;;;;9.10;8.80;;;9.80;99.90;;;;;;5080605;28;20238;-80
2021/12/30 00:05:09;;;;;;;9.07;8.77;;;10.00;99.90;;;;;;5080406;28;20690;-80
2021/12/30 00:07:37;;;;;;;8.93;8.63;;;10.10;99.90;;;;;;5079968;28;20230;-80
2021/12/30 00:10:07;;;;;;;8.97;8.67;;;10.30;99.90;;;;;;5079775;28;20230;-80
2021/12/30 00:12:35;;;;;;;8.90;8.60;;;10.40;99.90;;;;;;5081758;28;20226;-80
2021/12/30 00:15:04;;;;;;;8.90;8.60;;;10.50;99.90;;;;;;5082519;28;20249;-80
2021/12/30 00:17:34;;;;;;;9.03;8.73;;;10.50;99.90;;;;;;5082020;28;20241;-80
2021/12/30 00:20:03;;;;;;;9.03;8.73;;;10.60;99.90;;;;;;5084194;28;20330;-80
2021/12/30 00:22:31;;;;;;;8.90;8.60;;;10.60;99.90;;;;;;5083146;28;20233;-81
2021/12/30 00:24:59;;;;;;;8.97;8.67;;;10.70;99.90;;;;;;5082314;28;20768;-80
2021/12/30 00:27:27;;;;;;;8.80;8.50;;;10.80;99.90;;;;;;5082451;28;20222;-81
2021/12/30 00:29:55;;;;;;;8.97;8.67;;;10.90;99.90;;;;;;5081508;28;20252;-81
2021/12/30 00:32:23;;;;;;;8.90;8.60;;;10.90;99.90;;;;;;5082613;28;20261;-81
2021/12/30 00:34:52;;;;;;;9.10;8.80;;;10.90;99.90;;;;;;5088867;28;20244;-81
2021/12/30 00:37:20;;;;;;;8.97;8.67;;;11.00;99.90;;;;;;5080265;28;20320;-81
2021/12/30 00:39:48;;;;;;;8.90;8.60;;;11.00;99.90;;;;;;5080050;28;20238;-81
2021/12/30 00:42:17;;;;;;;9.00;8.70;;;11.10;99.90;;;;;;5081866;28;20305;-80
2021/12/30 00:44:45;;;;;;;8.70;8.40;;;11.10;99.90;;;;;;5081622;28;20234;-80
2021/12/30 00:47:13;;;;;;;8.93;8.63;;;11.20;99.90;;;;;;5082246;28;21048;-80
2021/12/30 00:49:41;;;;;;;8.90;8.60;;;11.20;99.90;;;;;;5082024;28;20323;-80
2021/12/30 00:52:10;;;;;;;9.00;8.70;;;11.30;99.90;;;;;;5081653;28;20234;-80
2021/12/30 00:54:38;;;;;;;8.90;8.60;;;11.30;99.90;;;;;;5081448;28;20218;-81
2021/12/30 00:57:06;;;;;;;9.00;8.70;;;11.30;99.90;;;;;;5081861;28;20231;-80
2021/12/30 00:59:33;;;;;;;8.77;8.47;;;11.30;99.90;;;;;;5082602;28;20233;-80
2021/12/30 01:02:01;;;;;;;8.90;8.60;;;11.40;99.90;;;;;;5082155;28;20604;-81
2021/12/30 01:04:29;;;;;;;9.10;8.80;;;11.40;99.90;;;;;;5081212;28;20230;-80
2021/12/30 01:06:57;;;;;;;9.00;8.70;;;11.40;99.90;;;;;;5081090;28;20291;-79
2021/12/30 01:09:26;;;;;;;9.10;8.80;;;11.50;99.90;;;;;;5081160;28;20245;-81
2021/12/30 01:11:55;;;;;;;9.17;8.87;;;11.50;99.90;;;;;;5081606;28;20229;-80
2021/12/30 01:14:27;;;;;;;9.30;9.00;;;11.50;99.90;;;;;;5083608;28;20241;-79
2021/12/30 01:16:59;;;;;;;9.20;8.90;;;11.50;99.90;;;;;;5098017;28;20237;-81
2021/12/30 01:22:12;;;;;;;9.23;8.93;;;11.50;99.90;;;;;;5086420;28;20297;-80
2021/12/30 01:24:42;;;;;;;9.30;9.00;;;11.50;99.90;;;;;;5082595;28;20234;-80
2021/12/30 01:27:10;;;;;;;9.50;9.20;;;11.50;99.90;;;;;;5084552;28;20245;-80
2021/12/30 01:29:38;;;;;;;9.60;9.30;;;11.60;99.90;;;;;;5079940;28;20234;-81
2021/12/30 01:32:07;;;;;;;9.70;9.40;;;11.60;99.90;;;;;;5078734;28;20233;-80
2021/12/30 01:34:36;;;;;;;9.33;9.03;;;11.60;99.90;;;;;;5079249;28;20230;-80
2021/12/30 01:37:05;;;;;;;9.67;9.37;;;11.60;99.90;;;;;;5079918;28;20289;-80
2021/12/30 01:39:36;;;;;;;9.67;9.37;;;11.60;99.90;;;;;;5080176;28;20237;-80
2021/12/30 01:42:07;;;;;;;9.50;9.20;;;11.60;99.90;;;;;;5079690;28;20321;-80
2021/12/30 01:44:35;;;;;;;9.50;9.20;;;11.70;99.90;;;;;;5083963;28;20218;-80
2021/12/30 01:47:05;;;;;;;9.60;9.30;;;11.70;99.90;;;;;;5080948;28;20233;-79
2021/12/30 01:49:33;;;;;;;9.90;9.60;;;11.70;99.90;;;;;;5081430;28;20283;-80
2021/12/30 01:52:01;;;;;;;9.70;9.40;;;11.70;99.90;;;;;;5081880;28;20233;-80
2021/12/30 01:54:29;;;;;;;9.77;9.47;;;11.70;99.90;;;;;;5082296;28;20256;-81
2021/12/30 01:57:01;;;;;;;9.80;9.50;;;11.70;99.90;;;;;;5080807;28;20230;-80
2021/12/30 01:59:30;;;;;;;9.80;9.50;;;11.70;99.90;;;;;;5079641;28;20237;-80
2021/12/30 02:01:59;;;;;;;9.83;9.53;;;11.70;99.90;;;;;;5080012;28;20280;-80
2021/12/30 02:04:28;;;;;;;9.93;9.63;;;11.70;99.90;;;;;;5079265;28;20228;-80
2021/12/30 02:06:57;;;;;;;9.70;9.40;;;11.70;99.90;;;;;;5079519;28;20230;-80
2021/12/30 02:09:25;;;;;;;9.70;9.40;;;11.70;99.90;;;;;;5078669;28;20297;-81
2021/12/30 02:11:55;;;;;;;9.90;9.60;;;11.70;99.90;;;;;;5079314;28;20226;-80
2021/12/30 02:14:23;;;;;;;9.80;9.50;;;11.70;99.90;;;;;;5079398;28;20226;-80
2021/12/30 02:16:53;;;;;;;9.93;9.63;;;11.70;99.90;;;;;;5079685;28;20221;-80
2021/12/30 02:19:21;;;;;;;10.03;9.73;;;11.70;99.90;;;;;;5079633;28;20234;-81
2021/12/30 02:21:50;;;;;;;9.90;9.60;;;11.70;99.90;;;;;;5084902;28;20264;-80
2021/12/30 02:24:18;;;;;;;9.83;9.53;;;11.80;99.90;;;;;;5085574;28;20321;-79
2021/12/30 02:26:45;;;;;;;9.80;9.50;;;11.80;99.90;;;;;;5085296;28;20226;-80
2021/12/30 02:29:14;;;;;;;9.70;9.40;;;11.70;99.90;;;;;;5082976;28;20260;-80
2021/12/30 02:31:41;;;;;;;9.70;9.40;;;11.80;99.90;;;;;;5082338;28;20226;-81
2021/12/30 02:34:09;;;;;;;9.67;9.37;;;11.80;99.90;;;;;;5085519;28;20239;-81
2021/12/30 02:36:39;;;;;;;9.93;9.63;;;11.80;99.90;;;;;;5092163;28;20225;-81
2021/12/30 02:39:12;;;;;;;9.90;9.60;;;11.80;99.90;;;;;;5088887;28;20238;-81
2021/12/30 02:41:39;;;;;;;9.90;9.60;;;11.70;99.90;;;;;;5083322;28;20265;-81
2021/12/30 02:44:10;;;;;;;9.60;9.30;;;11.70;99.90;;;;;;5082467;28;20317;-81
2021/12/30 02:46:39;;;;;;;9.83;9.53;;;11.70;99.90;;;;;;5083532;28;20292;-81
2021/12/30 02:49:08;;;;;;;9.70;9.40;;;11.70;99.90;;;;;;5082683;28;20305;-81
2021/12/30 02:51:36;;;;;;;9.27;8.97;;;11.70;99.90;;;;;;5083800;28;20226;-81
2021/12/30 02:54:05;;;;;;;9.40;9.10;;;11.70;99.90;;;;;;5082609;28;20234;-81
2021/12/30 02:56:34;;;;;;;9.20;8.90;;;11.70;99.90;;;;;;5082400;28;20696;-81
2021/12/30 02:59:02;;;;;;;9.30;9.00;;;11.70;99.90;;;;;;5082099;28;20684;-82
2021/12/30 03:01:32;;;;;;;9.40;9.10;;;11.70;99.90;;;;;;5082181;28;20222;-82
2021/12/30 03:04:03;;;;;;;9.40;9.10;;;11.60;99.90;;;;;;5081727;28;20222;-81
2021/12/30 03:06:33;;;;;;;9.30;9.00;;;11.70;99.90;;;;;;5092521;28;20229;-81
2021/12/30 03:09:01;;;;;;;9.70;9.40;;;11.70;99.90;;;;;;5095754;28;20238;-82
2021/12/30 03:11:30;;;;;;;9.63;9.33;;;11.70;99.90;;;;;;5092444;28;20230;-81
2021/12/30 03:14:01;;;;;;;9.50;9.20;;;11.70;99.90;;;;;;5100777;28;20245;-80
2021/12/30 03:16:32;;;;;;;9.50;9.20;;;11.60;99.90;;;;;;5100846;28;20223;-80
2021/12/30 03:19:01;;;;;;;9.40;9.10;;;11.60;99.90;;;;;;5091306;28;20256;-82
2021/12/30 03:21:29;;;;;;;9.10;8.80;;;11.60;99.90;;;;;;5084409;28;20230;-79
2021/12/30 03:24:01;;;;;;;9.60;9.30;;;11.60;99.90;;;;;;5083319;28;20234;-80
2021/12/30 03:26:29;;;;;;;9.10;8.80;;;11.60;99.90;;;;;;5083117;28;20234;-80
2021/12/30 03:28:58;;;;;;;9.00;8.70;;;11.60;99.90;;;;;;5082536;28;20245;-80
2021/12/30 03:31:26;;;;;;;9.50;9.20;;;11.60;99.90;;;;;;5082800;28;20253;-80
2021/12/30 03:33:54;;;;;;;9.03;8.73;;;11.70;99.90;;;;;;5082309;28;20236;-80
2021/12/30 03:36:22;;;;;;;9.17;8.87;;;11.70;99.90;;;;;;5083130;28;20230;-82
2021/12/30 03:38:56;;;;;;;9.10;8.80;;;11.60;99.90;;;;;;5095417;28;20238;-79
2021/12/30 03:41:29;;;;;;;9.13;8.83;;;11.60;99.90;;;;;;5097392;28;20226;-80
2021/12/30 03:44:01;;;;;;;9.10;8.80;;;11.60;99.90;;;;;;5095777;28;20230;-80
2021/12/30 03:46:30;;;;;;;9.17;8.87;;;11.60;99.90;;;;;;5095352;28;20290;-79
2021/12/30 03:48:58;;;;;;;9.10;8.80;;;11.60;99.90;;;;;;5098313;28;20234;-78
2021/12/30 03:51:26;;;;;;;9.10;8.80;;;11.50;99.90;;;;;;5098135;28;20260;-79
2021/12/30 03:53:57;;;;;;;9.10;8.80;;;11.50;99.90;;;;;;5098250;28;20222;-79
2021/12/30 03:56:28;;;;;;;8.90;8.60;;;11.50;99.90;;;;;;5098155;28;20210;-78
2021/12/30 03:58:59;;;;;;;8.87;8.57;;;11.50;99.90;;;;;;5098369;28;20261;-79
2021/12/30 04:01:28;;;;;;;9.10;8.80;;;11.60;99.90;;;;;;5098115;28;20227;-80
2021/12/30 04:03:57;;;;;;;9.20;8.90;;;11.50;99.90;;;;;;5088269;28;20225;-80
2021/12/30 04:06:27;;;;;;;9.20;8.90;;;11.60;99.90;;;;;;5085440;28;20227;-80
2021/12/30 04:08:55;;;;;;;9.30;9.00;;;11.50;99.90;;;;;;5083232;28;20321;-80
2021/12/30 04:11:26;;;;;;;9.30;9.00;;;11.50;99.90;;;;;;5085460;28;20269;-80
2021/12/30 04:13:54;;;;;;;9.57;9.27;;;11.50;99.90;;;;;;5084902;28;20237;-80
2021/12/30 04:16:23;;;;;;;9.37;9.07;;;11.50;99.90;;;;;;5089050;28;20221;-80
2021/12/30 04:18:51;;;;;;;9.20;8.90;;;11.40;99.90;;;;;;5088480;28;20240;-80
2021/12/30 04:21:20;;;;;;;9.30;9.00;;;11.40;99.90;;;;;;5086023;28;20230;-80
2021/12/30 04:23:48;;;;;;;9.30;9.00;;;11.40;99.90;;;;;;5084763;28;20288;-79
2021/12/30 04:26:16;;;;;;;9.30;9.00;;;11.40;99.90;;;;;;5083413;28;20218;-79
2021/12/30 04:28:44;;;;;;;9.50;9.20;;;11.40;99.90;;;;;;5082729;28;20268;-80
2021/12/30 04:31:12;;;;;;;9.30;9.00;;;11.50;99.90;;;;;;5083876;28;20232;-79
2021/12/30 04:33:43;;;;;;;9.40;9.10;;;11.50;99.90;;;;;;5082590;28;20233;-80
2021/12/30 04:36:11;;;;;;;9.27;8.97;;;11.50;99.90;;;;;;5088143;28;20194;-81
2021/12/30 04:38:39;;;;;;;9.20;8.90;;;11.50;99.90;;;;;;5088162;28;20300;-81
2021/12/30 04:41:08;;;;;;;9.20;8.90;;;11.50;99.90;;;;;;5086042;28;20232;-81
2021/12/30 04:43:36;;;;;;;9.30;9.00;;;11.50;99.90;;;;;;5083894;28;20327;-81
2021/12/30 04:46:04;;;;;;;9.00;8.70;;;11.50;99.90;;;;;;5082542;28;20233;-81
2021/12/30 04:48:32;;;;;;;9.10;8.80;;;11.50;99.90;;;;;;5081287;28;20293;-81
2021/12/30 04:51:01;;;;;;;9.10;8.80;;;11.60;99.90;;;;;;5081646;28;20234;-80
2021/12/30 04:53:30;;;;;;;9.07;8.77;;;11.60;99.90;;;;;;5080903;28;20234;-80
2021/12/30 04:55:57;;;;;;;9.00;8.70;;;11.60;99.90;;;;;;5080894;28;20227;-80
2021/12/30 04:58:25;;;;;;;9.30;9.00;;;11.60;99.90;;;;;;5081243;28;20316;-80
2021/12/30 05:00:53;;;;;;;9.20;8.90;;;11.60;99.90;;;;;;5096859;28;20241;-79
2021/12/30 05:03:21;;;;;;;9.10;8.80;;;11.50;99.90;;;;;;5085910;28;20238;-80
2021/12/30 05:05:52;;;;;;;9.00;8.70;;;11.60;99.90;;;;;;5083411;28;20222;-80
2021/12/30 05:08:25;;;;;;;9.20;8.90;;;11.50;99.90;;;;;;5092828;28;20233;-79
2021/12/30 05:10:54;;;;;;;9.20;8.90;;;11.50;99.90;;;;;;5101070;28;20210;-78
2021/12/30 05:13:22;;;;;;;9.20;8.90;;;11.50;99.90;;;;;;5100368;28;20221;-79
2021/12/30 05:15:50;;;;;;;9.10;8.80;;;11.50;99.90;;;;;;5100692;28;20202;-77
2021/12/30 05:18:19;;;;;;;9.30;9.00;;;11.50;99.90;;;;;;5100200;28;20240;-79
2021/12/30 05:20:46;;;;;;;9.13;8.83;;;11.50;99.90;;;;;;5100926;28;20206;-79
2021/12/30 05:23:14;;;;;;;9.17;8.87;;;11.50;99.90;;;;;;5100440;28;20218;-81
2021/12/30 05:25:43;;;;;;;9.30;9.00;;;11.50;99.90;;;;;;5093114;28;20233;-80
2021/12/30 05:28:11;;;;;;;9.33;9.03;;;11.50;99.90;;;;;;5089381;28;20257;-80
2021/12/30 05:30:39;;;;;;;9.23;8.93;;;11.50;99.90;;;;;;5086888;28;20229;-81
2021/12/30 05:33:07;;;;;;;9.30;9.00;;;11.50;99.90;;;;;;5080083;28;20252;-80
2021/12/30 05:35:35;;;;;;;9.27;8.97;;;11.50;99.90;;;;;;5084143;28;20253;-80
2021/12/30 05:38:03;;;;;;;9.27;8.97;;;11.50;99.90;;;;;;5082103;28;20230;-80
2021/12/30 05:40:31;;;;;;;9.10;8.80;;;11.50;99.90;;;;;;5081593;28;20230;-81
2021/12/30 05:43:00;;;;;;;9.17;8.87;;;11.50;99.90;;;;;;5079854;28;20234;-81
2021/12/30 05:45:28;;;;;;;9.20;8.90;;;11.50;99.90;;;;;;5080103;28;20257;-80
2021/12/30 05:47:56;;;;;;;9.37;9.07;;;11.50;99.90;;;;;;5077923;28;20249;-81
2021/12/30 05:50:31;;;;;;;9.30;9.00;;;11.50;99.90;;;;;;5117741;22;20272;-82
2021/12/30 05:52:59;;;;;;;9.00;8.70;;;11.50;99.90;;;;;;5060707;28;20288;-82
2021/12/30 05:55:28;;;;;;;9.20;8.90;;;11.50;99.90;;;;;;5062493;28;20234;-82
2021/12/30 05:57:57;;;;;;;9.00;8.70;;;11.50;99.90;;;;;;5083944;28;20260;-82
2021/12/30 06:00:28;;;;;;;8.90;8.60;;;11.50;99.90;;;;;;5085437;28;20234;-82
2021/12/30 06:02:56;;;;;;;9.30;9.00;;;11.50;99.90;;;;;;5085369;28;20218;-82
2021/12/30 06:05:24;;;;;;;9.20;8.90;;;11.50;99.90;;;;;;5078223;28;20227;-82
2021/12/30 06:07:52;;;;;;;9.50;9.20;;;11.50;99.90;;;;;;5077893;28;20234;-83
2021/12/30 06:10:20;;;;;;;9.30;9.00;;;11.50;99.90;;;;;;5065440;28;20238;-82
2021/12/30 06:12:48;;;;;;;9.10;8.80;;;11.50;99.90;;;;;;5066859;28;20257;-82
2021/12/30 06:15:16;;;;;;;9.27;8.97;;;11.60;99.90;;;;;;5075943;28;20215;-82
2021/12/30 06:17:45;;;;;;;9.17;8.87;;;11.50;99.90;;;;;;5079183;28;20238;-81
2021/12/30 06:20:15;;;;;;;9.20;8.90;;;11.60;99.90;;;;;;5079729;28;20215;-80
2021/12/30 06:22:44;;;;;;;9.00;8.70;;;11.60;99.90;;;;;;5080701;28;20234;-81
2021/12/30 06:25:13;;;;;;;9.03;8.73;;;11.50;99.90;;;;;;5087216;28;20237;-81
2021/12/30 06:27:41;;;;;;;8.90;8.60;;;11.50;99.90;;;;;;5092711;28;20231;-80
2021/12/30 06:30:10;;;;;;;9.30;9.00;;;11.50;99.90;;;;;;5100943;28;20222;-80
2021/12/30 06:32:38;;;;;;;9.20;8.90;;;11.50;99.90;;;;;;5099867;28;20248;-82
2021/12/30 06:35:09;;;;;;;9.07;8.77;;;11.50;99.90;;;;;;5101948;28;20256;-81
2021/12/30 06:37:38;;;;;;;8.70;8.50;;;11.50;99.90;;;;;;5098704;28;20234;-82
2021/12/30 06:40:08;;;;;;;9.00;8.70;;;11.60;99.90;;;;;;5100453;28;20218;-80
2021/12/30 06:42:36;;;;;;;8.80;8.50;;;11.60;99.90;;;;;;5100178;28;20223;-79
2021/12/30 06:45:05;;;;;;;8.60;8.40;;;11.50;99.90;;;;;;5099829;28;20245;-81
2021/12/30 06:47:33;;;;;;;8.60;8.40;;;11.60;99.90;;;;;;5099653;28;20256;-83
2021/12/30 06:50:02;;;;;;;8.50;8.30;;;11.60;99.90;;;;;;5087436;28;20219;-82
2021/12/30 06:52:32;;;;;;;8.70;8.50;;;11.60;99.90;;;;;;5096651;28;20230;-82
2021/12/30 06:54:59;;;;;;;8.63;8.43;;;11.70;99.90;;;;;;5100811;28;20202;-82
2021/12/30 06:57:28;;;;;;;8.60;8.40;;;11.70;99.90;;;;;;5101178;28;20226;-79
2021/12/30 06:59:56;;;;;;;8.60;8.40;;;11.80;99.90;;;;;;5099510;28;20276;-82
2021/12/30 07:02:24;;;;;;;8.57;8.37;;;11.80;99.90;;;;;;5099626;28;20223;-82
2021/12/30 07:04:52;;;;;;;8.60;8.40;;;11.70;99.90;;;;;;5098548;28;20238;-81
2021/12/30 07:07:20;;;;;;;8.83;8.53;;;11.70;99.90;;;;;;5099575;28;20222;-81
2021/12/30 07:09:49;;;;;;;8.90;8.60;;;11.60;99.90;;;;;;5099584;28;20230;-80
2021/12/30 07:12:17;;;;;;;8.50;8.30;;;11.50;99.90;;;;;;5097963;28;20222;-80
2021/12/30 07:14:44;;;;;;;8.93;8.63;;;11.40;99.90;;;;;;5099834;28;20238;-80
2021/12/30 07:17:12;;;;;;;9.00;8.70;;;11.40;99.90;;;;;;5093877;28;20264;-81
2021/12/30 07:19:40;;;;;;;8.90;8.60;;;11.30;99.90;;;;;;5088018;28;20256;-79
2021/12/30 07:22:08;;;;;;;8.73;8.43;;;11.30;99.90;;;;;;5092733;28;20221;-80
2021/12/30 07:24:35;;;;;;;8.70;8.40;;;11.30;99.90;;;;;;5088865;28;20230;-82
2021/12/30 07:27:05;;;;;;;8.87;8.57;;;11.30;99.90;;;;;;5085986;28;20234;-82
2021/12/30 07:29:32;;;;;;;8.67;8.37;;;11.40;99.90;;;;;;5086368;28;20241;-82
2021/12/30 07:32:00;;;;;;;8.97;8.67;;;11.40;99.90;;;;;;5087376;28;20230;-82
2021/12/30 07:34:28;;;;;;;8.80;8.50;;;11.40;99.90;;;;;;5086455;28;20226;-82
2021/12/30 07:36:55;;;;;;;8.90;8.60;;;11.30;99.90;;;;;;5085708;28;20230;-82
2021/12/30 07:39:23;;;;;;;8.50;8.30;;;11.30;99.90;;;;;;5086449;28;20276;-82
2021/12/30 07:41:51;;;;;;;8.73;8.43;;;11.30;99.90;;;;;;5085254;28;20234;-82
2021/12/30 07:44:20;;;;;;;8.77;8.47;;;11.30;99.90;;;;;;5084577;28;20234;-82
2021/12/30 07:46:48;;;;;;;9.00;8.70;;;11.20;99.90;;;;;;5086116;28;20230;-82
2021/12/30 07:49:16;;;;;;;8.80;8.50;;;11.20;99.90;;;;;;5084641;28;20241;-83
2021/12/30 07:51:43;;;;;;;8.93;8.63;;;11.20;99.90;;;;;;5085726;28;20248;-82
2021/12/30 07:54:11;;;;;;;9.20;8.90;;;11.20;99.90;;;;;;5085167;28;20250;-81
2021/12/30 07:56:39;;;;;;;9.10;8.80;;;11.20;99.90;;;;;;5085619;28;20261;-82
2021/12/30 07:59:07;;;;;;;9.20;8.90;;;11.10;99.90;;;;;;5084563;28;20246;-83
2021/12/30 08:01:36;;;;;;;9.23;8.93;;;11.10;99.90;;;;;;5084723;28;20222;-82
2021/12/30 08:04:04;;;;;;;9.10;8.80;;;11.10;99.90;;;;;;5084411;28;20230;-82
2021/12/30 08:06:33;;;;;;;9.30;9.00;;;11.10;99.90;;;;;;5085724;28;20230;-82
2021/12/30 08:09:01;;;;;;;9.30;9.00;;;11.10;99.90;;;;;;5083775;28;20241;-81
2021/12/30 08:11:28;;;;;;;9.50;9.20;;;11.10;99.90;;;;;;5082902;28;20276;-84
2021/12/30 08:13:56;;;;;;;9.23;8.93;;;11.10;99.90;;;;;;5085296;28;20274;-83
2021/12/30 08:16:24;;;;;;;9.10;8.80;;;11.10;99.90;;;;;;5086624;28;20238;-83
2021/12/30 08:18:53;;;;;;;9.30;9.00;;;11.10;99.90;;;;;;5070183;28;20246;-84
2021/12/30 08:21:21;;;;;;;9.30;9.00;;;11.10;99.90;;;;;;5069317;28;20255;-83
2021/12/30 08:23:51;;;;;;;9.33;9.03;;;11.00;99.90;;;;;;5044757;28;20227;-84
2021/12/30 08:26:19;;;;;;;9.50;9.20;;;11.00;99.90;;;;;;5044707;28;20326;-83
2021/12/30 08:28:48;;;;;;;9.57;9.27;;;11.00;99.90;;;;;;5043512;28;20374;-82
2021/12/30 08:31:16;;;;;;;9.30;9.00;;;10.90;99.90;;;;;;5044672;28;20250;-83
2021/12/30 08:33:44;;;;;;;9.60;9.30;;;10.90;99.90;;;;;;5047995;28;20232;-82
2021/12/30 08:36:13;;;;;;;9.37;9.07;;;11.00;99.90;;;;;;5045913;28;20972;-82
2021/12/30 08:38:41;;;;;;;9.20;8.90;;;11.00;99.90;;;;;;5045157;28;20235;-82
2021/12/30 08:41:09;;;;;;;9.20;8.90;;;11.10;99.90;;;;;;5045226;28;20235;-81
2021/12/30 08:43:36;;;;;;;9.10;8.80;;;11.20;99.90;;;;;;5045602;28;20219;-82
2021/12/30 08:46:04;;;;;;;9.30;9.00;;;11.30;99.90;;;;;;5046261;28;20227;-81
2021/12/30 08:48:32;;;;;;;9.20;8.90;;;11.30;99.90;;;;;;5046420;28;20295;-82
2021/12/30 08:51:00;;;;;;;9.30;9.00;;;11.40;99.90;;;;;;5046401;28;20254;-82
2021/12/30 08:53:29;;;;;;;9.30;9.00;;;11.50;99.90;;;;;;5046141;28;20211;-82
2021/12/30 08:55:58;;;;;;;9.20;8.90;;;11.50;99.90;;;;;;5045707;28;20231;-81
2021/12/30 08:58:25;;;;;;;9.00;8.70;;;11.60;99.90;;;;;;5042776;28;20239;-81
2021/12/30 09:00:53;;;;;;;9.20;8.90;;;11.70;99.90;;;;;;5043621;28;20251;-80
2021/12/30 09:03:24;;;;;;;8.97;8.67;;;11.70;99.90;;;;;;5045423;28;20231;-82
2021/12/30 09:05:52;;;;;;;9.10;8.80;;;11.70;99.90;;;;;;5053759;28;20292;-81
2021/12/30 09:08:19;;;;;;;8.80;8.50;;;11.80;99.90;;;;;;5068148;28;20277;-81
2021/12/30 09:10:50;;;;;;;8.97;8.67;;;11.80;99.90;;;;;;5071492;28;20232;-81
2021/12/30 09:13:20;;;;;;;9.07;8.77;;;11.80;99.90;;;;;;5056892;28;20287;-81
2021/12/30 09:15:49;;;;;;;9.10;8.80;;;11.90;99.90;;;;;;5056377;28;20227;-80
2021/12/30 09:18:16;;;;;;;9.07;8.77;;;11.90;99.90;;;;;;5040055;28;20239;-81
2021/12/30 09:20:45;;;;;;;9.30;9.00;;;11.90;99.90;;;;;;5040500;28;20390;-81
2021/12/30 09:23:15;;;;;;;9.00;8.70;;;11.90;99.90;;;;;;5041517;28;20232;-80
2021/12/30 09:25:43;;;;;;;9.10;8.80;;;12.00;99.90;;;;;;5050188;28;20237;-80
2021/12/30 09:28:12;;;;;;;9.20;8.90;;;12.00;99.90;;;;;;5065165;28;20231;-81
2021/12/30 09:30:42;;;;;;;9.20;8.90;;;12.00;99.90;;;;;;5083122;28;20290;-80
2021/12/30 09:33:15;;;;;;;9.30;9.00;;;12.10;99.90;;;;;;5072784;28;20234;-82
2021/12/30 09:35:44;;;;;;;8.90;8.60;;;12.10;99.90;;;;;;5065937;28;20238;-81
2021/12/30 09:38:12;;;;;;;9.20;8.90;;;12.10;99.90;;;;;;5066083;28;20231;-81
2021/12/30 09:40:40;;;;;;;9.20;8.90;;;12.20;99.90;;;;;;5091880;28;20231;-81
2021/12/30 09:43:09;;;;;;;8.93;8.63;;;12.20;99.90;;;;;;5072195;28;20215;-82
2021/12/30 09:45:42;;;;;;;9.07;8.77;;;12.20;99.90;;;;;;5084828;28;20237;-81
2021/12/30 09:48:12;;;;;;;9.00;8.70;;;12.20;99.90;;;;;;5067549;28;20296;-81
2021/12/30 09:50:43;;;;;;;8.90;8.60;;;12.20;99.90;;;;;;5073271;28;20261;-81
2021/12/30 09:53:12;;;;;;;9.00;8.70;;;12.30;99.90;;;;;;5081512;28;20248;-82
2021/12/30 09:55:40;;;;;;;9.10;8.80;;;12.30;99.90;;;;;;5084948;28;20232;-79
2021/12/30 09:58:09;;;;;;;9.07;8.77;;;12.30;99.90;;;;;;5089917;28;20237;-80
2021/12/30 10:00:39;;;;;;;9.07;8.77;;;12.30;99.90;;;;;;5072577;28;20262;-81
2021/12/30 10:03:07;;;;;;;8.97;8.67;;;12.30;99.90;;;;;;5069443;28;20275;-82
2021/12/30 10:05:39;;;;;;;9.00;8.70;;;12.40;99.90;;;;;;5060834;28;20732;-83
2021/12/30 10:08:18;;;;;;;9.20;8.90;;;12.40;99.90;;;;;;5068589;28;20238;-84
2021/12/30 10:10:48;;;;;;;8.80;8.50;;;12.40;99.90;;;;;;5060182;28;20273;-81
2021/12/30 10:13:24;;;;;;;9.00;8.70;;;12.50;99.90;;;;;;5059809;28;20227;-82
2021/12/30 10:15:55;;;;;;;8.80;8.50;;;12.50;99.90;;;;;;5068666;28;20265;-81
2021/12/30 10:18:25;;;;;;;9.00;8.70;;;12.50;99.90;;;;;;5049640;28;20231;-80
2021/12/30 10:20:54;;;;;;;9.00;8.70;;;12.60;99.90;;;;;;5051279;28;20249;-82
2021/12/30 10:23:25;;;;;;;9.00;8.70;;;12.60;99.90;;;;;;5063704;28;20228;-82
2021/12/30 10:25:57;;;;;;;8.97;8.67;;;12.60;99.90;;;;;;5061211;28;20268;-80
2021/12/30 10:28:31;;;;;;;8.53;8.33;;;12.70;99.90;;;;;;5061136;28;20438;-82
2021/12/30 10:31:20;;;;;;;9.00;8.70;;;12.70;99.90;;;;;;5067238;28;20237;-82
2021/12/30 10:33:56;;;;;;;8.60;8.40;;;12.80;99.90;;;;;;5071968;28;20234;-80
2021/12/30 10:36:27;;;;;;;9.20;8.90;;;12.80;99.90;;;;;;5059081;28;20227;-82
2021/12/30 10:39:14;;;;;;;8.90;8.60;;;12.90;99.90;;;;;;5046069;28;20273;-81
2021/12/30 10:41:42;;;;;;;9.00;8.70;;;12.90;99.90;;;;;;5060890;28;20680;-80
2021/12/30 10:44:10;;;;;;;8.87;8.60;;;13.00;99.90;;;;;;5045518;28;20310;-80
2021/12/30 10:46:39;;;;;;;8.70;8.50;;;13.00;99.90;;;;;;5048086;28;20234;-82
2021/12/30 10:49:09;;;;;;;8.80;8.50;;;13.10;99.90;;;;;;5054534;28;20243;-81
2021/12/30 10:51:41;;;;;;;8.87;8.57;;;13.10;99.90;;;;;;5056345;28;20219;-81
2021/12/30 10:54:19;;;;;;;8.97;8.67;;;13.10;99.90;;;;;;5046762;28;20231;-83
2021/12/30 10:56:50;;;;;;;9.07;8.77;;;13.10;99.90;;;;;;5048284;28;20577;-82
2021/12/30 10:59:28;;;;;;;9.30;9.00;;;13.20;99.90;;;;;;5052818;28;20325;-81
2021/12/30 11:02:04;;;;;;;9.03;8.73;;;13.20;99.90;;;;;;5057816;28;20231;-81
2021/12/30 11:04:39;;;;;;;9.07;8.77;;;13.20;99.90;;;;;;5063678;28;20228;-81
2021/12/30 11:07:09;;;;;;;9.00;8.70;;;13.20;99.90;;;;;;5062653;28;20238;-82
2021/12/30 11:09:39;;;;;;;8.50;8.30;;;13.30;99.90;;;;;;5052851;28;20238;-81
2021/12/30 11:12:08;;;;;;;8.93;8.63;;;13.30;99.90;;;;;;5070772;28;20713;-82
2021/12/30 11:14:38;;;;;;;9.00;8.70;;;13.30;99.90;;;;;;5078463;28;20242;-81
2021/12/30 11:17:17;;;;;;;8.97;8.67;;;13.40;99.90;;;;;;5055684;28;20231;-81
2021/12/30 11:19:50;;;;;;;8.67;8.47;;;13.40;99.90;;;;;;5058090;28;20234;-82
2021/12/30 11:22:21;;;;;;;8.40;8.20;;;13.40;99.90;;;;;;5061519;28;20713;-80
2021/12/30 11:24:51;;;;;;;8.60;8.40;;;13.40;99.90;;;;;;5048007;28;20361;-81
2021/12/30 11:27:20;;;;;;;8.90;8.60;;;13.50;99.90;;;;;;5067927;28;20350;-81
2021/12/30 11:29:51;;;;;;;9.00;8.70;;;13.50;99.90;;;;;;5064352;28;20261;-82
2021/12/30 11:32:23;;;;;;;8.40;8.20;;;13.50;99.90;;;;;;5063075;28;20227;-80
2021/12/30 11:34:52;;;;;;;8.70;8.50;;;13.60;99.90;;;;;;5063128;28;20218;-82
2021/12/30 11:37:20;;;;;;;8.73;8.53;;;13.60;99.90;;;;;;5063136;28;20293;-82
2021/12/30 11:39:53;;;;;;;8.67;8.47;;;13.60;99.90;;;;;;5049340;28;20293;-81
2021/12/30 11:42:39;;;;;;;8.93;8.63;;;13.60;99.90;;;;;;5044449;28;20235;-80
2021/12/30 11:45:26;;;;;;;8.60;8.40;;;13.60;99.90;;;;;;5053218;28;20235;-79
2021/12/30 11:47:57;;;;;;;8.40;8.20;;;13.60;99.90;;;;;;5042437;28;20227;-81
2021/12/30 11:50:36;;;;;;;8.50;8.30;;;13.60;99.90;;;;;;5043447;28;20250;-81
2021/12/30 11:53:11;;;;;;;8.50;8.30;;;13.70;99.90;;;;;;5061779;28;20223;-80
2021/12/30 11:55:58;;;;;;;9.07;8.77;;;13.70;99.90;;;;;;5061744;28;20329;-80
2021/12/30 11:58:52;;;;;;;8.70;8.47;;;13.70;99.90;;;;;;5060356;28;20261;-80
2021/12/30 12:01:42;;;;;;;8.73;8.43;;;13.70;99.90;;;;;;5053029;28;20277;-81
2021/12/30 12:04:16;;;;;;;9.10;8.80;;;13.80;99.90;;;;;;5044270;28;20238;-81
2021/12/30 12:06:49;;;;;;;9.10;8.80;;;13.70;99.90;;;;;;5043023;28;20238;-82
2021/12/30 12:09:43;;;;;;;8.70;8.50;;;13.80;99.90;;;;;;5054378;28;20257;-82
2021/12/30 12:12:16;;;;;;;8.70;8.50;;;13.80;99.90;;;;;;5049531;28;20241;-79
2021/12/30 12:15:00;;;;;;;8.60;8.40;;;13.80;99.90;;;;;;5059156;28;20301;-79
2021/12/30 12:17:38;;;;;;;8.60;8.40;;;13.90;99.90;;;;;;5045070;28;20330;-81
2021/12/30 12:20:22;;;;;;;8.60;8.40;;;13.90;99.90;;;;;;5059280;28;20238;-82
2021/12/30 12:22:51;;;;;;;9.07;8.77;;;14.00;99.90;;;;;;5058296;28;20224;-80
2021/12/30 12:25:22;;;;;;;9.20;8.90;;;14.00;99.90;;;;;;5044728;28;20243;-81
2021/12/30 12:27:52;;;;;;;9.00;8.70;;;14.00;99.90;;;;;;5059652;28;20317;-82
2021/12/30 12:30:31;;;;;;;9.23;8.93;;;14.10;99.90;;;;;;5062164;28;20231;-81
2021/12/30 12:33:01;;;;;;;9.00;8.70;;;14.10;99.90;;;;;;5045337;28;20262;-81
2021/12/30 12:35:33;;;;;;;9.23;8.93;;;14.00;99.90;;;;;;5046232;28;20286;-80
2021/12/30 12:38:06;;;;;;;9.40;9.10;;;14.00;99.90;;;;;;5060013;28;21027;-81
2021/12/30 12:40:39;;;;;;;9.20;8.90;;;14.00;99.90;;;;;;5074113;28;20416;-81
2021/12/30 12:43:16;;;;;;;9.23;8.93;;;14.00;99.90;;;;;;5077500;28;20234;-82
2021/12/30 12:46:02;;;;;;;9.13;8.83;;;14.00;99.90;;;;;;5084722;28;20226;-80
2021/12/30 12:48:35;;;;;;;9.47;9.17;;;14.00;99.90;;;;;;5089027;28;20210;-80
2021/12/30 12:51:08;;;;;;;9.20;8.90;;;14.10;99.90;;;;;;5083693;28;20264;-80
2021/12/30 12:53:50;;;;;;;9.43;9.13;;;14.10;99.90;;;;;;5098742;28;20221;-80
2021/12/30 12:56:28;;;;;;;9.27;8.97;;;14.10;99.90;;;;;;5098066;28;20225;-81
2021/12/30 12:58:58;;;;;;;9.20;8.90;;;14.20;99.90;;;;;;5097691;28;20260;-83
2021/12/30 13:01:29;;;;;;;9.10;8.80;;;14.20;99.90;;;;;;5087994;28;20283;-80
2021/12/30 13:04:00;;;;;;;9.33;9.03;;;14.20;99.90;;;;;;5077697;28;20218;-81